Latest Weather Observations for Casterton

IDV60801

Issued at 8:05 pm EDT Monday 30 March 2015 (issued every 30 minutes, with the page automatically refreshed every 10 minutes)

About weather observations | Map of weather stations | Latest weather observations for VIC | Other Formats
Station Details ID: 090182 Name: CASTERTON Lat: -37.58 Lon: 141.33 Height: 130.6 m
Data from the previous 72 hours. | See also: Recent months at Casterton
Date/Time
EDT
Temp
°C
App
Temp
°C
Dew
Point
Rel
Hum
%
Delta-T
°C
Wind Press
QNH
hPa
Press
MSL
hPa
Rain
since 9 am
mm
Dir
 
Spd
km/h
Gust
km/h
Spd
kts
Gust
kts
30/08:00pm 17.2 15.1 12.5 74 2.6 S 15 20 8 11 1025.1 - 0.0
30/07:30pm 18.2 16.7 13.1 72 2.9 S 13 17 7 9 1024.6 - 0.0
30/07:00pm 19.4 17.1 12.9 66 3.7 S 17 24 9 13 1024.4 - 0.0
30/06:30pm 21.3 19.3 11.6 54 5.4 SW 13 20 7 11 1024.1 - 0.0
30/06:00pm 21.8 19.8 12.6 56 5.2 SSW 15 20 8 11 1024.0 1023.7 0.0
30/05:30pm 21.4 19.8 11.7 54 5.4 SW 11 17 6 9 1023.8 - 0.0
30/05:00pm 21.7 20.0 11.1 51 5.9 SSW 11 17 6 9 1023.7 - 0.0
30/04:30pm 21.2 19.5 11.2 53 5.5 SW 11 17 6 9 1023.8 - 0.0
30/04:00pm 21.9 20.0 10.4 48 6.3 WNW 11 17 6 9 1024.0 - 0.0
30/03:30pm 20.2 18.1 11.1 56 5.0 SW 13 19 7 10 1024.3 - 0.0
30/03:00pm 21.7 19.5 10.8 50 6.0 WNW 13 22 7 12 1024.2 1023.9 0.0
30/02:30pm 20.7 18.3 11.3 55 5.2 W 15 24 8 13 1024.5 - 0.0
30/02:00pm 20.0 18.0 11.5 58 4.7 WNW 13 17 7 9 1025.0 - 0.0
30/01:30pm 19.4 17.5 11.7 61 4.3 W 13 19 7 10 1025.2 - 0.0
30/01:00pm 19.2 18.0 12.7 66 3.7 W 11 15 6 8 1025.4 - 0.0
30/12:30pm 17.9 16.1 13.4 75 2.5 W 15 20 8 11 1025.5 - 0.0
30/12:00pm 17.1 14.9 13.4 79 2.1 WSW 17 22 9 12 1025.7 1025.5 0.0
30/11:30am 16.8 15.2 12.9 78 2.2 W 13 19 7 10 1025.7 - 0.0
30/11:00am 15.8 15.6 13.6 87 1.2 WSW 7 11 4 6 1025.8 - 0.0
30/10:30am 14.7 14.8 14.4 98 0.2 NW 7 13 4 7 1025.8 - 0.0
30/10:00am 13.7 13.6 13.4 98 0.2 N 6 9 3 5 1025.2 - 0.0
30/09:30am 13.2 12.8 13.0 99 0.1 N 7 11 4 6 1025.0 - 0.0
30/09:00am 10.9 10.4 10.7 99 0.1 NE 4 6 2 3 1024.7 1024.4 0.0
30/08:30am 10.2 8.9 10.0 99 0.1 NE 7 9 4 5 1024.2 - 0.0
30/08:00am 9.9 8.8 9.8 99 0.1 NE 6 9 3 5 1024.2 - 0.0
30/07:30am 10.0 8.7 9.9 99 0.1 NE 7 9 4 5 1024.0 - 0.0
30/07:00am 10.2 10.3 10.0 99 0.1 CALM 0 6 0 3 1023.7 - 0.0
30/06:30am 9.2 9.0 9.1 99 0.0 CALM 0 0 0 0 1023.4 - 0.0
30/06:00am 8.6 8.3 8.5 99 0.0 CALM 0 0 0 0 1023.2 1022.9 0.0
30/05:30am 7.6 7.0 7.5 99 0.0 CALM 0 0 0 0 1023.1 - 0.0
30/05:00am 8.4 8.0 8.3 99 0.0 CALM 0 0 0 0 1022.9 - 0.0
30/04:30am 8.0 7.5 7.9 99 0.0 CALM 0 0 0 0 1022.9 - 0.0
30/04:00am 8.0 7.5 7.9 99 0.0 CALM 0 0 0 0 1022.9 - 0.0
30/03:30am 8.4 8.0 8.1 98 0.1 CALM 0 0 0 0 1022.8 - 0.0
30/03:00am 8.9 8.6 8.6 98 0.1 CALM 0 6 0 3 1022.8 1022.5 0.0
30/02:30am 9.0 8.7 8.7 98 0.1 CALM 0 0 0 0 1023.0 - 0.0
30/02:00am 9.7 9.6 9.4 98 0.1 CALM 0 0 0 0 1023.1 - 0.0
30/01:30am 9.7 9.6 9.4 98 0.1 CALM 0 0 0 0 1023.3 - 0.0
30/01:00am 10.0 10.0 9.7 98 0.2 CALM 0 0 0 0 1023.3 - 0.0
30/12:30am 10.4 10.5 10.1 98 0.2 CALM 0 0 0 0 1023.3 - 0.0
30/12:00am 10.8 11.0 10.5 98 0.2 CALM 0 0 0 0 1023.3 1023.0 0.0
 
Date/Time
EDT
Temp
°C
App
Temp
°C
Dew
Point
Rel
Hum
%
Delta-T
°C
Wind Press
QNH
hPa
Press
MSL
hPa
Rain
since 9 am
mm
Dir
 
Spd
km/h
Gust
km/h
Spd
kts
Gust
kts
29/11:30pm 11.3 11.5 10.4 94 0.5 CALM 0 0 0 0 1023.5 - 0.0
29/11:00pm 11.9 12.0 10.1 89 0.9 CALM 0 0 0 0 1023.5 - 0.0
29/10:30pm 12.5 12.5 9.7 83 1.4 CALM 0 0 0 0 1023.6 - 0.0
29/10:00pm 13.9 12.4 9.3 74 2.4 SW 7 9 4 5 1023.5 - 0.0
29/09:30pm 14.8 13.6 9.4 70 2.8 SSW 6 7 3 4 1023.4 - 0.0
29/09:00pm 15.2 13.4 9.6 69 2.9 SW 9 11 5 6 1023.1 1022.8 0.0
29/08:30pm 15.8 14.2 10.3 70 2.9 WSW 9 11 5 6 1022.7 - 0.0
29/08:00pm 16.2 14.6 10.3 68 3.1 SW 9 13 5 7 1022.4 - 0.0
29/07:30pm 18.1 15.8 10.5 61 4.1 S 13 20 7 11 1022.0 - 0.0
29/07:00pm 19.7 16.4 9.6 52 5.4 SW 17 22 9 12 1021.6 - 0.0
29/06:30pm 20.0 18.1 9.0 49 5.8 W 9 13 5 7 1021.2 - 0.0
29/06:00pm 22.5 20.2 9.0 42 7.2 W 11 17 6 9 1020.9 1020.6 0.0
29/05:30pm 22.3 18.9 7.7 39 7.7 W 15 20 8 11 1020.8 - 0.0
29/05:00pm 22.6 19.4 8.3 40 7.6 WSW 15 24 8 13 1020.7 - 0.0
29/04:30pm 22.8 20.8 8.5 40 7.6 W 9 17 5 9 1020.6 - 0.0
29/04:00pm 22.5 19.6 8.2 40 7.6 WNW 13 28 7 15 1020.7 - 0.0
29/03:30pm 22.5 20.1 8.6 41 7.4 WNW 11 20 6 11 1020.8 - 0.0
29/03:00pm 21.9 18.8 8.8 43 7.0 NW 15 22 8 12 1021.1 1020.8 0.0
29/02:30pm 21.3 18.9 8.6 44 6.7 W 11 20 6 11 1021.5 - 0.0
29/02:00pm 21.7 20.3 9.6 46 6.5 W 7 17 4 9 1021.8 - 0.0
29/01:30pm 19.4 16.6 8.7 50 5.6 W 13 24 7 13 1022.1 - 0.0
29/01:00pm 20.3 17.8 9.8 51 5.7 WNW 13 20 7 11 1022.3 - 0.0
29/12:30pm 18.9 16.3 9.4 54 5.0 W 13 20 7 11 1022.5 - 0.0
29/12:00pm 18.6 16.7 9.1 54 5.0 WNW 9 19 5 10 1022.7 1022.4 0.0
29/11:30am 18.8 17.3 10.6 59 4.4 WNW 9 15 5 8 1022.8 - 0.0
29/11:00am 17.8 16.8 11.1 65 3.6 NW 7 13 4 7 1022.9 - 0.0
29/10:30am 16.5 15.2 11.2 71 2.9 NNW 9 13 5 7 1023.0 - 0.0
29/10:00am 14.4 14.1 12.8 90 0.9 NNW 6 9 3 5 1023.0 - 0.0
29/09:30am 11.5 10.8 11.3 99 0.1 NE 6 7 3 4 1022.7 - 0.0
29/09:00am 9.4 9.3 9.3 99 0.0 CALM 0 0 0 0 1022.5 1022.2 0.2
29/08:30am 8.0 6.4 7.9 99 0.0 NE 6 11 3 6 1022.3 - 0.2
29/08:00am 6.6 4.5 6.5 99 0.0 NE 7 11 4 6 1022.1 - 0.2
29/07:30am 6.0 3.7 5.9 99 0.0 NE 7 11 4 6 1021.9 - 0.2
29/07:00am 5.7 3.4 5.6 99 0.0 NE 7 9 4 5 1021.7 - 0.2
29/06:30am 6.0 4.7 5.9 99 0.0 NNE 2 9 1 5 1021.7 - 0.2
29/06:00am 6.2 5.3 6.1 99 0.0 CALM 0 0 0 0 1021.4 1021.1 0.2
29/05:30am 6.5 5.7 6.4 99 0.0 CALM 0 0 0 0 1021.2 - 0.2
29/05:00am 7.5 6.1 7.4 99 0.0 N 4 6 2 3 1020.8 - 0.2
29/04:30am 7.4 6.0 7.3 99 0.0 NW 4 7 2 4 1020.8 - 0.2
29/04:00am 7.2 5.2 7.1 99 0.0 W 7 11 4 6 1021.0 - 0.2
29/03:30am 6.9 6.2 6.8 99 0.0 CALM 0 0 0 0 1020.8 - 0.2
29/03:00am 6.7 5.9 6.6 99 0.0 CALM 0 0 0 0 1020.8 1020.5 0.2
29/02:30am 7.8 7.3 7.7 99 0.0 CALM 0 0 0 0 1020.9 - 0.2
29/02:00am 7.3 5.3 7.2 99 0.0 NE 7 9 4 5 1021.0 - 0.2
29/01:30am 7.0 6.3 6.9 99 0.0 CALM 0 0 0 0 1021.1 - 0.2
29/01:00am 7.7 7.1 7.6 99 0.0 CALM 0 0 0 0 1021.3 - 0.2
29/12:30am 7.7 7.1 7.4 98 0.1 CALM 0 0 0 0 1021.5 - 0.2
29/12:00am 7.8 7.2 7.5 98 0.1 CALM 0 0 0 0 1021.6 1021.3 0.2
 
Date/Time
EDT
Temp
°C
App
Temp
°C
Dew
Point
Rel
Hum
%
Delta-T
°C
Wind Press
QNH
hPa
Press
MSL
hPa
Rain
since 9 am
mm
Dir
 
Spd
km/h
Gust
km/h
Spd
kts
Gust
kts
28/11:30pm 8.2 7.7 7.9 98 0.1 CALM 0 0 0 0 1021.8 - 0.2
28/11:00pm 8.9 8.6 8.6 98 0.1 CALM 0 0 0 0 1022.1 - 0.2
28/10:30pm 9.3 9.1 9.0 98 0.1 CALM 0 0 0 0 1022.1 - 0.2
28/10:00pm 9.0 8.7 8.7 98 0.1 CALM 0 15 0 8 1022.2 - 0.2
28/09:30pm 9.4 9.2 8.9 97 0.2 CALM 0 0 0 0 1022.3 - 0.2
28/09:00pm 10.5 10.4 9.3 92 0.6 CALM 0 0 0 0 1022.1 1021.8 0.2
28/08:30pm 11.6 11.4 9.0 84 1.3 CALM 0 0 0 0 1022.0 - 0.2
28/08:00pm 12.5 11.8 8.6 77 2.0 N 2 6 1 3 1022.0 - 0.2
28/07:30pm 14.0 12.0 8.6 70 2.7 NNW 9 11 5 6 1022.0 - 0.2
28/07:00pm 16.1 14.2 9.1 63 3.6 NW 9 13 5 7 1021.9 - 0.2
28/06:30pm 16.8 14.9 9.0 60 4.1 WNW 9 11 5 6 1021.8 - 0.2
28/06:00pm 17.3 15.8 9.0 58 4.3 NW 7 13 4 7 1022.0 1021.7 0.2
28/05:30pm 16.2 13.9 8.9 62 3.8 NNW 11 15 6 8 1022.1 - 0.2
28/05:00pm 17.3 15.4 9.2 59 4.2 WNW 9 20 5 11 1022.3 - 0.2
28/04:30pm 16.4 14.9 9.3 63 3.7 WNW 7 13 4 7 1022.7 - 0.2
28/04:00pm 15.8 13.1 8.8 63 3.6 NW 13 20 7 11 1022.9 - 0.2
28/03:30pm 15.8 13.2 9.2 65 3.4 NNW 13 20 7 11 1023.3 - 0.2
28/03:00pm 15.8 13.1 9.0 64 3.5 NW 13 20 7 11 1023.3 1023.0 0.2
28/02:30pm 16.1 14.0 9.8 66 3.3 NW 11 17 6 9 1023.7 - 0.2
28/02:00pm 15.5 13.4 9.6 68 3.1 WNW 11 15 6 8 1024.1 - 0.2
28/01:30pm 14.6 13.1 9.2 70 2.8 NNW 7 13 4 7 1024.7 - 0.2
28/01:00pm 14.1 11.8 9.1 72 2.6 NNW 11 15 6 8 1025.1 - 0.2
28/12:30pm 13.8 12.0 9.6 76 2.2 NW 9 13 5 7 1025.5 - 0.2
28/12:00pm 13.7 12.3 9.6 76 2.1 NW 7 11 4 6 1025.7 1025.5 0.0
28/11:30am 13.5 11.9 10.1 80 1.8 N 9 19 5 10 1025.9 - 0.0
28/11:00am 13.2 11.8 12.3 94 0.5 N 11 17 6 9 1026.2 - 0.0
28/10:30am 12.7 11.4 12.4 98 0.2 N 11 15 6 8 1026.3 - 0.0
28/10:00am 12.1 11.6 11.9 99 0.1 NE 6 9 3 5 1026.4 - 0.0
28/09:30am 11.8 11.0 11.6 99 0.1 N 7 9 4 5 1026.2 - 0.0
28/09:00am 11.3 11.3 11.1 99 0.1 NNW 2 6 1 3 1026.1 1025.9 0.8
28/08:30am 10.9 11.2 10.9 100 0.0 CALM 0 0 0 0 1026.1 - 0.8
28/08:00am 10.7 10.9 10.7 100 0.0 CALM 0 0 0 0 1025.8 - 0.8
28/07:30am 10.6 10.8 10.6 100 0.0 CALM 0 0 0 0 1025.5 - 0.8
28/07:00am 10.5 9.6 10.5 100 0.0 NNE 6 7 3 4 1025.2 - 0.8
28/06:30am 10.5 9.6 10.5 100 0.0 ENE 6 7 3 4 1024.9 - 0.8
28/06:00am 10.6 9.7 10.6 100 0.0 N 6 11 3 6 1024.8 1024.5 0.8
28/05:30am 10.5 10.7 10.5 100 0.0 CALM 0 0 0 0 1024.9 - 0.8
28/05:00am 10.6 10.8 10.6 100 0.0 CALM 0 0 0 0 1025.0 - 0.8
28/04:30am 10.6 10.8 10.6 100 0.0 CALM 0 0 0 0 1025.2 - 0.8
28/04:00am 10.4 9.4 10.4 100 0.0 WNW 6 7 3 4 1025.3 - 0.8
28/03:30am 10.2 10.3 10.0 99 0.1 CALM 0 0 0 0 1025.4 - 0.8
28/03:00am 10.4 9.2 10.2 99 0.1 N 7 9 4 5 1025.5 1025.2 0.8
28/02:30am 10.4 10.5 10.2 99 0.1 CALM 0 0 0 0 1025.9 - 0.8
28/02:00am 10.3 10.4 10.1 99 0.1 CALM 0 0 0 0 1026.1 - 0.6
28/01:30am 9.5 9.4 9.4 99 0.0 CALM 0 4 0 2 1026.1 - 0.6
28/01:00am 8.9 8.6 8.8 99 0.0 CALM 0 0 0 0 1026.0 - 0.6
28/12:30am 7.9 7.0 7.8 99 0.0 NW 2 6 1 3 1026.1 - 0.6
28/12:00am 8.5 8.1 8.4 99 0.0 CALM 0 0 0 0 1026.2 1026.0 0.6
 
Date/Time
EDT
Temp
°C
App
Temp
°C
Dew
Point
Rel
Hum
%
Delta-T
°C
Wind Press
QNH
hPa
Press
MSL
hPa
Rain
since 9 am
mm
Dir
 
Spd
km/h
Gust
km/h
Spd
kts
Gust
kts
27/11:30pm 9.2 8.6 9.1 99 0.0 NW 2 6 1 3 1026.3 - 0.6
27/11:00pm 9.9 8.8 9.8 99 0.1 SSW 6 7 3 4 1026.4 - 0.6
27/10:30pm 10.2 8.9 10.0 99 0.1 WSW 7 9 4 5 1026.7 - 0.6
27/10:00pm 11.0 9.9 10.8 99 0.1 WSW 7 9 4 5 1026.6 - 0.6
27/09:30pm 10.9 9.8 10.6 98 0.2 SSW 7 9 4 5 1026.4 - 0.6
27/09:00pm 10.9 9.4 10.7 99 0.1 SW 9 11 5 6 1026.5 1026.3 0.6
27/08:30pm 10.4 9.1 10.1 98 0.2 SW 7 9 4 5 1026.1 - 0.6

Other Formats:

Comma delimited format used in spreadsheet applications
http://www.bom.gov.au/fwo/IDV60801/IDV60801.95825.axf

JavaScript Object Notation format (JSON) in row-major order
http://www.bom.gov.au/fwo/IDV60801/IDV60801.95825.json